Time;durP1;ratioP1;P1;durP2;ratioP2;P2;SDS_P1;SDS_P2;PMS_P1;PMS_P2;Temp;Humidity;BMP_temperature;BMP_pressure;BME280_temperature;BME280_humidity;BME280_pressure;Samples;Min_cycle;Max_cycle;Signal;HPM_P1;HPM_P2
2023/06/05 00:02:18;;;;;;;3.97;3.47;;;;;;;;;;5071069;28;20199;-54
2023/06/05 00:04:44;;;;;;;5.00;3.30;;;;;;;;;;5070772;28;20211;-54
2023/06/05 00:07:10;;;;;;;6.30;3.60;;;;;;;;;;5070698;28;20754;-54
2023/06/05 00:09:36;;;;;;;4.43;3.10;;;;;;;;;;5073979;28;20277;-54
2023/06/05 00:12:02;;;;;;;5.37;3.50;;;;;;;;;;5075128;28;20197;-53
2023/06/05 00:14:28;;;;;;;3.60;2.87;;;;;;;;;;5074800;28;20747;-54
2023/06/05 00:16:57;;;;;;;4.67;3.67;;;;;;;;;;5074670;28;20199;-54
2023/06/05 00:19:23;;;;;;;5.20;3.30;;;;;;;;;;5072712;28;20203;-54
2023/06/05 00:21:51;;;;;;;3.93;3.20;;;;;;;;;;5073429;28;20200;-54
2023/06/05 00:24:17;;;;;;;6.60;3.77;;;;;;;;;;5074763;28;20243;-54
2023/06/05 00:26:43;;;;;;;7.07;3.87;;;;;;;;;;5074976;28;20406;-53
2023/06/05 00:29:09;;;;;;;3.90;3.50;;;;;;;;;;5074867;28;20565;-53
2023/06/05 00:31:35;;;;;;;5.07;3.20;;;;;;;;;;5074801;28;20195;-53
2023/06/05 00:34:02;;;;;;;6.20;3.67;;;;;;;;;;5074535;28;20254;-53
2023/06/05 00:36:28;;;;;;;5.37;3.97;;;;;;;;;;5074612;28;20207;-54
2023/06/05 00:38:54;;;;;;;5.63;3.70;;;;;;;;;;5074560;28;20195;-54
2023/06/05 00:41:20;;;;;;;5.33;3.70;;;;;;;;;;5074729;28;20200;-54
2023/06/05 00:43:47;;;;;;;5.17;3.60;;;;;;;;;;5074458;28;20217;-54
2023/06/05 00:46:13;;;;;;;4.13;3.73;;;;;;;;;;5074566;28;20195;-54
2023/06/05 00:48:40;;;;;;;4.43;3.70;;;;;;;;;;5074270;28;20279;-52
2023/06/05 00:51:10;;;;;;;5.50;3.53;;;;;;;;;;5074605;28;20249;-52
2023/06/05 00:53:36;;;;;;;4.10;3.20;;;;;;;;;;5074384;28;20220;-53
2023/06/05 00:56:02;;;;;;;5.40;3.70;;;;;;;;;;5074342;28;20191;-53
2023/06/05 00:58:29;;;;;;;4.93;4.00;;;;;;;;;;5074210;28;20195;-52
2023/06/05 01:00:56;;;;;;;4.17;3.77;;;;;;;;;;5074226;28;20272;-53
2023/06/05 01:03:23;;;;;;;4.87;3.80;;;;;;;;;;5074258;28;20239;-53
2023/06/05 01:05:49;;;;;;;7.10;4.00;;;;;;;;;;5074030;28;20227;-52
2023/06/05 01:08:18;;;;;;;6.13;3.90;;;;;;;;;;5074032;28;20196;-53
2023/06/05 01:10:44;;;;;;;5.67;4.33;;;;;;;;;;5073919;28;20199;-53
2023/06/05 01:13:16;;;;;;;4.73;4.30;;;;;;;;;;5073923;28;20229;-53
2023/06/05 01:15:42;;;;;;;4.10;3.70;;;;;;;;;;5073901;28;20271;-54
2023/06/05 01:18:10;;;;;;;4.73;3.83;;;;;;;;;;5073738;28;20666;-53
2023/06/05 01:20:36;;;;;;;5.20;4.00;;;;;;;;;;5073772;28;20682;-53
2023/06/05 01:23:04;;;;;;;6.47;4.00;;;;;;;;;;5073864;28;20673;-53
2023/06/05 01:25:32;;;;;;;6.03;4.40;;;;;;;;;;5073697;28;20235;-53
2023/06/05 01:28:01;;;;;;;4.07;3.60;;;;;;;;;;5073648;28;20278;-53
2023/06/05 01:30:30;;;;;;;5.30;4.10;;;;;;;;;;5073682;28;20192;-53
2023/06/05 01:33:02;;;;;;;4.70;3.93;;;;;;;;;;5073569;28;20203;-53
2023/06/05 01:35:32;;;;;;;6.20;4.20;;;;;;;;;;5073523;28;20207;-53
2023/06/05 01:37:59;;;;;;;4.87;4.20;;;;;;;;;;5073687;28;20204;-53
2023/06/05 01:40:26;;;;;;;6.10;3.57;;;;;;;;;;5073421;28;20203;-53
2023/06/05 01:42:55;;;;;;;5.13;4.30;;;;;;;;;;5073538;28;20207;-53
2023/06/05 01:45:21;;;;;;;6.73;4.67;;;;;;;;;;5073574;28;20246;-53
2023/06/05 01:47:48;;;;;;;5.23;3.63;;;;;;;;;;5073176;28;20191;-53
2023/06/05 01:50:14;;;;;;;5.43;4.40;;;;;;;;;;5073258;28;20484;-53
2023/06/05 01:52:41;;;;;;;5.67;4.30;;;;;;;;;;5073140;28;20203;-53
2023/06/05 01:55:12;;;;;;;4.43;3.77;;;;;;;;;;5073395;28;20235;-53
2023/06/05 01:57:40;;;;;;;5.97;4.00;;;;;;;;;;5073150;28;20200;-53
2023/06/05 02:00:08;;;;;;;5.23;4.27;;;;;;;;;;5073419;28;20220;-53
2023/06/05 02:02:35;;;;;;;4.80;4.30;;;;;;;;;;5073350;28;20280;-53
2023/06/05 02:05:01;;;;;;;4.40;3.93;;;;;;;;;;5072868;28;20203;-53
2023/06/05 02:07:28;;;;;;;5.10;4.20;;;;;;;;;;5073169;28;20207;-53
2023/06/05 02:09:55;;;;;;;4.80;4.00;;;;;;;;;;5072971;28;20221;-53
2023/06/05 02:12:26;;;;;;;5.43;4.10;;;;;;;;;;5073042;28;20233;-52
2023/06/05 02:14:55;;;;;;;5.70;4.63;;;;;;;;;;5072872;28;20223;-52
2023/06/05 02:17:21;;;;;;;7.37;5.00;;;;;;;;;;5072979;28;20716;-53
2023/06/05 02:19:47;;;;;;;8.87;5.50;;;;;;;;;;5072621;28;20204;-53
2023/06/05 02:22:13;;;;;;;7.30;4.97;;;;;;;;;;5072586;28;20222;-53
2023/06/05 02:24:39;;;;;;;6.97;4.70;;;;;;;;;;5072370;28;20231;-53
2023/06/05 02:27:08;;;;;;;7.30;5.07;;;;;;;;;;5072823;28;20207;-53
2023/06/05 02:29:34;;;;;;;6.83;4.43;;;;;;;;;;5072556;28;20195;-54
2023/06/05 02:32:01;;;;;;;7.33;5.27;;;;;;;;;;5072022;28;20282;-53
2023/06/05 02:34:28;;;;;;;5.63;4.97;;;;;;;;;;5072415;28;20705;-53
2023/06/05 02:36:55;;;;;;;6.67;5.03;;;;;;;;;;5072315;28;20635;-52
2023/06/05 02:39:21;;;;;;;8.67;6.23;;;;;;;;;;5072699;28;20253;-53
2023/06/05 02:41:47;;;;;;;6.37;5.00;;;;;;;;;;5072242;28;20207;-53
2023/06/05 02:44:13;;;;;;;5.83;5.00;;;;;;;;;;5072288;28;20203;-53
2023/06/05 02:46:39;;;;;;;7.93;5.30;;;;;;;;;;5072199;28;20594;-52
2023/06/05 02:49:06;;;;;;;6.73;5.57;;;;;;;;;;5072434;28;20223;-53
2023/06/05 02:51:32;;;;;;;6.70;5.80;;;;;;;;;;5072169;28;20207;-53
2023/06/05 02:53:58;;;;;;;5.80;5.20;;;;;;;;;;5071855;28;20227;-53
2023/06/05 02:56:26;;;;;;;5.97;5.17;;;;;;;;;;5072211;28;20195;-53
2023/06/05 02:58:53;;;;;;;8.00;6.30;;;;;;;;;;5071935;28;20238;-52
2023/06/05 03:01:21;;;;;;;8.33;5.40;;;;;;;;;;5072008;28;20534;-52
2023/06/05 03:03:48;;;;;;;6.30;5.70;;;;;;;;;;5071790;28;20607;-53
2023/06/05 03:06:17;;;;;;;10.57;6.70;;;;;;;;;;5071453;28;20245;-52
2023/06/05 03:08:43;;;;;;;9.27;7.20;;;;;;;;;;5070561;28;20633;-53
2023/06/05 03:11:09;;;;;;;8.60;5.97;;;;;;;;;;5071822;28;20203;-53
2023/06/05 03:13:35;;;;;;;6.63;5.93;;;;;;;;;;5071717;28;20311;-53
2023/06/05 03:16:01;;;;;;;9.73;6.67;;;;;;;;;;5071550;28;20282;-53
2023/06/05 03:18:27;;;;;;;8.83;6.23;;;;;;;;;;5071109;28;20553;-52
2023/06/05 03:20:54;;;;;;;8.73;6.50;;;;;;;;;;5071510;28;20203;-53
2023/06/05 03:23:23;;;;;;;7.30;5.83;;;;;;;;;;5071556;28;20206;-52
2023/06/05 03:25:49;;;;;;;6.70;5.97;;;;;;;;;;5071529;28;20202;-52
2023/06/05 03:28:15;;;;;;;8.67;6.17;;;;;;;;;;5071477;28;20218;-52
2023/06/05 03:30:41;;;;;;;9.43;6.70;;;;;;;;;;5071347;28;20661;-52
2023/06/05 03:33:07;;;;;;;8.40;6.13;;;;;;;;;;5071417;28;20235;-53
2023/06/05 03:35:34;;;;;;;7.57;6.77;;;;;;;;;;5071339;28;20224;-53
2023/06/05 03:38:00;;;;;;;6.83;6.07;;;;;;;;;;5071395;28;20200;-53
2023/06/05 03:40:28;;;;;;;8.80;6.83;;;;;;;;;;5071747;28;20207;-53
2023/06/05 03:42:54;;;;;;;6.97;6.27;;;;;;;;;;5070529;28;20286;-53
2023/06/05 03:45:20;;;;;;;6.77;5.80;;;;;;;;;;5071375;28;20200;-53
2023/06/05 03:47:48;;;;;;;7.70;6.40;;;;;;;;;;5071066;28;20198;-53
2023/06/05 03:50:15;;;;;;;9.20;6.43;;;;;;;;;;5071448;28;20211;-52
2023/06/05 03:52:41;;;;;;;6.87;6.13;;;;;;;;;;5071049;28;20195;-53
2023/06/05 03:55:10;;;;;;;8.50;6.67;;;;;;;;;;5071313;28;20225;-52
2023/06/05 03:57:37;;;;;;;7.30;6.50;;;;;;;;;;5071250;28;20614;-53
2023/06/05 04:00:04;;;;;;;7.10;6.33;;;;;;;;;;5071387;28;20265;-53
2023/06/05 04:02:30;;;;;;;10.87;7.27;;;;;;;;;;5071031;28;20199;-52
2023/06/05 04:04:56;;;;;;;7.17;6.47;;;;;;;;;;5070864;28;20288;-53
2023/06/05 04:07:22;;;;;;;6.90;6.20;;;;;;;;;;5071201;28;20191;-53
2023/06/05 04:09:48;;;;;;;7.73;6.30;;;;;;;;;;5070985;28;20203;-52
2023/06/05 04:12:14;;;;;;;9.83;7.37;;;;;;;;;;5071021;28;20204;-52
2023/06/05 04:14:42;;;;;;;7.67;6.43;;;;;;;;;;5071059;28;20216;-52
2023/06/05 04:17:08;;;;;;;7.53;6.03;;;;;;;;;;5070859;28;20686;-53
2023/06/05 04:19:34;;;;;;;10.53;6.80;;;;;;;;;;5071101;28;20192;-53
2023/06/05 04:22:00;;;;;;;7.43;6.03;;;;;;;;;;5070861;28;20210;-53
2023/06/05 04:24:27;;;;;;;7.13;6.43;;;;;;;;;;5070674;28;20318;-53
2023/06/05 04:26:54;;;;;;;10.37;7.17;;;;;;;;;;5070838;28;20191;-53
2023/06/05 04:29:20;;;;;;;7.23;6.33;;;;;;;;;;5070975;28;20227;-53
2023/06/05 04:31:48;;;;;;;7.30;6.37;;;;;;;;;;5070655;28;20211;-53
2023/06/05 04:34:14;;;;;;;7.87;6.60;;;;;;;;;;5070529;28;20800;-53
2023/06/05 04:36:40;;;;;;;7.63;6.37;;;;;;;;;;5070617;28;20213;-53
2023/06/05 04:39:13;;;;;;;6.87;6.17;;;;;;;;;;5070944;28;20195;-53
2023/06/05 04:41:44;;;;;;;8.00;6.60;;;;;;;;;;5070536;28;20727;-53
2023/06/05 04:44:10;;;;;;;8.63;6.03;;;;;;;;;;5070655;28;20270;-53
2023/06/05 04:46:38;;;;;;;7.80;6.70;;;;;;;;;;5070603;28;20680;-53
2023/06/05 04:49:06;;;;;;;7.63;6.30;;;;;;;;;;5070506;28;20199;-53
2023/06/05 04:51:33;;;;;;;8.17;6.70;;;;;;;;;;5070482;28;20670;-53
2023/06/05 04:53:59;;;;;;;7.87;6.40;;;;;;;;;;5070635;28;20242;-53
2023/06/05 04:56:25;;;;;;;7.40;6.70;;;;;;;;;;5074262;28;20670;-53
2023/06/05 04:58:53;;;;;;;7.30;5.93;;;;;;;;;;5074228;28;20199;-53
2023/06/05 05:01:19;;;;;;;8.53;6.57;;;;;;;;;;5074252;28;20674;-53
2023/06/05 05:03:47;;;;;;;7.40;6.27;;;;;;;;;;5073935;28;20245;-53
2023/06/05 05:06:16;;;;;;;7.23;6.27;;;;;;;;;;5074191;28;20203;-53
2023/06/05 05:08:44;;;;;;;6.83;5.73;;;;;;;;;;5073849;28;20230;-53
2023/06/05 05:11:10;;;;;;;7.97;5.77;;;;;;;;;;5073994;28;20222;-53
2023/06/05 05:13:36;;;;;;;8.33;5.73;;;;;;;;;;5073797;28;20196;-52
2023/06/05 05:16:02;;;;;;;10.13;6.30;;;;;;;;;;5073903;28;20658;-53
2023/06/05 05:18:29;;;;;;;8.20;6.87;;;;;;;;;;5073473;28;20195;-52
2023/06/05 05:20:55;;;;;;;12.43;7.73;;;;;;;;;;5073574;28;20200;-53
2023/06/05 05:23:23;;;;;;;6.63;5.80;;;;;;;;;;5073381;28;20249;-53
2023/06/05 05:25:49;;;;;;;11.00;6.40;;;;;;;;;;5073767;28;20704;-53
2023/06/05 05:28:15;;;;;;;7.87;6.30;;;;;;;;;;5073656;28;20199;-53
2023/06/05 05:30:41;;;;;;;7.43;6.43;;;;;;;;;;5073549;28;20328;-53
2023/06/05 05:33:07;;;;;;;7.30;6.20;;;;;;;;;;5073530;28;20195;-53
2023/06/05 05:35:33;;;;;;;7.00;6.30;;;;;;;;;;5073624;28;20223;-53
2023/06/05 05:37:59;;;;;;;6.47;5.87;;;;;;;;;;5073362;28;20203;-53
2023/06/05 05:40:26;;;;;;;8.03;6.63;;;;;;;;;;5073506;28;20318;-53
2023/06/05 05:42:52;;;;;;;7.33;5.90;;;;;;;;;;5073334;28;20298;-53
2023/06/05 05:45:18;;;;;;;7.10;5.83;;;;;;;;;;5073484;28;20605;-53
2023/06/05 05:47:45;;;;;;;8.57;5.87;;;;;;;;;;5072879;28;20257;-53
2023/06/05 05:50:11;;;;;;;7.03;6.33;;;;;;;;;;5073328;28;20199;-53
2023/06/05 05:52:37;;;;;;;7.83;5.77;;;;;;;;;;5073253;28;20253;-53
2023/06/05 05:55:03;;;;;;;6.87;5.67;;;;;;;;;;5073536;28;20261;-53
2023/06/05 05:57:31;;;;;;;6.00;5.27;;;;;;;;;;5073186;28;20207;-53
2023/06/05 05:59:57;;;;;;;5.70;5.03;;;;;;;;;;5072995;28;20199;-54
2023/06/05 06:02:23;;;;;;;6.63;5.53;;;;;;;;;;5073109;28;20203;-54
2023/06/05 06:04:49;;;;;;;7.60;5.43;;;;;;;;;;5072916;28;20226;-54
2023/06/05 06:07:15;;;;;;;9.83;5.10;;;;;;;;;;5071864;28;20199;-54
2023/06/05 06:09:42;;;;;;;5.47;4.97;;;;;;;;;;5072605;28;20225;-54
2023/06/05 06:12:08;;;;;;;6.13;5.07;;;;;;;;;;5073074;28;20204;-54
2023/06/05 06:14:35;;;;;;;6.70;4.83;;;;;;;;;;5072901;28;20694;-54
2023/06/05 06:17:02;;;;;;;6.50;4.73;;;;;;;;;;5072888;28;20204;-54
2023/06/05 06:19:28;;;;;;;7.40;5.30;;;;;;;;;;5072538;28;20222;-54
2023/06/05 06:21:54;;;;;;;6.53;5.40;;;;;;;;;;5072546;28;20203;-54
2023/06/05 06:24:22;;;;;;;5.77;5.27;;;;;;;;;;5072606;28;20223;-54
2023/06/05 06:26:48;;;;;;;5.13;4.50;;;;;;;;;;5072461;28;20192;-54
2023/06/05 06:29:15;;;;;;;7.43;4.80;;;;;;;;;;5072607;28;20506;-54
2023/06/05 06:31:42;;;;;;;6.73;5.17;;;;;;;;;;5072384;28;20199;-54
2023/06/05 06:34:09;;;;;;;5.97;4.93;;;;;;;;;;5072243;28;20740;-54
2023/06/05 06:36:40;;;;;;;6.20;4.83;;;;;;;;;;5072579;28;20666;-54
2023/06/05 06:39:06;;;;;;;6.27;4.90;;;;;;;;;;5072594;28;20204;-54
2023/06/05 06:41:32;;;;;;;6.13;4.23;;;;;;;;;;5072416;28;20250;-53
2023/06/05 06:43:58;;;;;;;6.53;4.47;;;;;;;;;;5072148;28;20714;-54
2023/06/05 06:46:24;;;;;;;6.37;4.60;;;;;;;;;;5072259;28;20207;-54
2023/06/05 06:48:51;;;;;;;5.27;4.40;;;;;;;;;;5071952;28;20200;-54
2023/06/05 06:51:17;;;;;;;7.50;5.07;;;;;;;;;;5072257;28;20227;-54
2023/06/05 06:53:44;;;;;;;5.23;4.67;;;;;;;;;;5071823;28;20202;-54
2023/06/05 06:56:10;;;;;;;7.13;4.50;;;;;;;;;;5071859;28;20204;-54
2023/06/05 06:58:36;;;;;;;5.70;4.50;;;;;;;;;;5072109;28;20574;-54
2023/06/05 07:01:03;;;;;;;4.77;4.20;;;;;;;;;;5071824;28;20211;-54
2023/06/05 07:03:29;;;;;;;4.97;4.47;;;;;;;;;;5072003;28;20206;-54
2023/06/05 07:05:56;;;;;;;5.40;4.33;;;;;;;;;;5071601;28;20218;-54
2023/06/05 07:08:22;;;;;;;5.93;4.20;;;;;;;;;;5071979;28;20300;-54
2023/06/05 07:10:48;;;;;;;8.10;5.07;;;;;;;;;;5071743;28;20245;-54
2023/06/05 07:13:15;;;;;;;4.60;3.93;;;;;;;;;;5071775;28;20204;-54
2023/06/05 07:15:41;;;;;;;7.20;3.83;;;;;;;;;;5071551;28;20229;-54
2023/06/05 07:18:07;;;;;;;7.23;4.57;;;;;;;;;;5071456;28;20217;-55
2023/06/05 07:20:33;;;;;;;5.80;4.00;;;;;;;;;;5071811;28;20189;-55
2023/06/05 07:23:00;;;;;;;4.73;3.73;;;;;;;;;;5071630;28;20596;-55
2023/06/05 07:25:27;;;;;;;4.60;4.03;;;;;;;;;;5071209;28;20594;-55
2023/06/05 07:27:53;;;;;;;6.27;4.43;;;;;;;;;;5071500;28;20199;-56
2023/06/05 07:30:19;;;;;;;3.87;3.33;;;;;;;;;;5071662;28;20191;-55
2023/06/05 07:32:45;;;;;;;5.80;3.93;;;;;;;;;;5071249;28;20215;-55
2023/06/05 07:35:14;;;;;;;6.10;3.67;;;;;;;;;;5071371;28;20635;-55
2023/06/05 07:37:40;;;;;;;4.93;3.70;;;;;;;;;;5071162;28;20200;-55
2023/06/05 07:40:10;;;;;;;4.40;3.73;;;;;;;;;;5071468;28;20203;-55
2023/06/05 07:42:36;;;;;;;4.50;3.57;;;;;;;;;;5071631;28;20282;-55
2023/06/05 07:45:02;;;;;;;4.00;3.50;;;;;;;;;;5071197;28;20627;-55
2023/06/05 07:47:28;;;;;;;7.87;3.67;;;;;;;;;;5071267;28;20225;-55
2023/06/05 07:49:58;;;;;;;4.60;3.53;;;;;;;;;;5071187;28;20222;-55
2023/06/05 07:52:24;;;;;;;3.97;3.33;;;;;;;;;;5071142;28;20662;-55
2023/06/05 07:54:50;;;;;;;5.87;3.40;;;;;;;;;;5071122;28;20223;-55
2023/06/05 07:57:19;;;;;;;4.90;3.40;;;;;;;;;;5071300;28;20200;-53
2023/06/05 07:59:46;;;;;;;3.83;3.37;;;;;;;;;;5071009;28;20204;-52
2023/06/05 08:02:12;;;;;;;4.30;3.33;;;;;;;;;;5071014;28;20206;-54
2023/06/05 08:04:39;;;;;;;3.70;3.13;;;;;;;;;;5070786;28;20356;-55
2023/06/05 08:07:05;;;;;;;5.17;3.20;;;;;;;;;;5070954;28;20223;-54
2023/06/05 08:09:33;;;;;;;6.67;3.67;;;;;;;;;;5071059;28;20200;-55
2023/06/05 08:11:59;;;;;;;4.67;3.27;;;;;;;;;;5070930;28;20210;-54
2023/06/05 08:14:27;;;;;;;3.90;2.93;;;;;;;;;;5070968;28;20227;-55
2023/06/05 08:16:53;;;;;;;7.47;2.93;;;;;;;;;;5070936;28;20199;-55
2023/06/05 08:19:19;;;;;;;3.20;2.90;;;;;;;;;;5071166;28;20196;-55
2023/06/05 08:21:45;;;;;;;5.30;3.30;;;;;;;;;;5070874;28;20200;-55
2023/06/05 08:24:11;;;;;;;3.30;2.77;;;;;;;;;;5070497;28;20233;-55
2023/06/05 08:26:37;;;;;;;4.00;3.50;;;;;;;;;;5071019;28;20203;-55
2023/06/05 08:29:02;;;;;;;5.73;3.17;;;;;;;;;;5071227;28;20204;-55
2023/06/05 08:31:33;;;;;;;3.47;2.70;;;;;;;;;;5074740;28;20205;-54
2023/06/05 08:33:59;;;;;;;3.43;2.40;;;;;;;;;;5074592;28;20226;-55
2023/06/05 08:36:25;;;;;;;5.50;3.13;;;;;;;;;;5074721;28;20361;-54
2023/06/05 08:38:51;;;;;;;6.47;2.83;;;;;;;;;;5074706;28;20203;-54
2023/06/05 08:41:18;;;;;;;4.20;2.90;;;;;;;;;;5074635;28;20216;-54
2023/06/05 08:43:44;;;;;;;2.60;2.40;;;;;;;;;;5074459;28;20692;-54
2023/06/05 08:46:11;;;;;;;4.03;2.67;;;;;;;;;;5074391;28;20221;-54
2023/06/05 08:48:41;;;;;;;4.10;3.07;;;;;;;;;;5074431;28;20205;-54
2023/06/05 08:51:10;;;;;;;3.73;3.33;;;;;;;;;;5074315;28;20206;-56
2023/06/05 08:53:38;;;;;;;4.20;2.80;;;;;;;;;;5074483;28;20202;-55
2023/06/05 08:56:05;;;;;;;4.55;3.33;;;;;;;;;;5073163;28;20428;-55
2023/06/05 08:58:31;;;;;;;2.87;2.47;;;;;;;;;;5074286;28;20223;-54
2023/06/05 09:00:57;;;;;;;3.83;3.27;;;;;;;;;;5074116;28;20253;-55
2023/06/05 09:03:23;;;;;;;4.47;3.00;;;;;;;;;;5074097;28;20608;-55
2023/06/05 09:05:52;;;;;;;5.90;3.70;;;;;;;;;;5072949;28;20400;-56
2023/06/05 09:08:19;;;;;;;5.90;3.03;;;;;;;;;;5074250;28;20195;-56
2023/06/05 09:10:46;;;;;;;3.57;2.53;;;;;;;;;;5073966;28;20192;-56
2023/06/05 09:13:11;;;;;;;3.83;2.70;;;;;;;;;;5074096;28;20428;-56
2023/06/05 09:15:38;;;;;;;4.70;2.47;;;;;;;;;;5073990;28;20235;-57
2023/06/05 09:18:08;;;;;;;4.17;2.60;;;;;;;;;;5073756;28;20192;-56
2023/06/05 09:20:34;;;;;;;4.00;2.57;;;;;;;;;;5073883;28;20200;-56
2023/06/05 09:23:02;;;;;;;4.00;2.63;;;;;;;;;;5073828;28;20250;-56
2023/06/05 09:25:44;;;;;;;5.13;2.70;;;;;;;;;;5073512;28;20240;-55
2023/06/05 09:28:10;;;;;;;3.87;2.50;;;;;;;;;;5073731;28;20205;-55
2023/06/05 09:30:53;;;;;;;3.80;2.50;;;;;;;;;;5073902;28;20207;-56
2023/06/05 09:33:19;;;;;;;3.53;2.80;;;;;;;;;;5073861;28;20200;-56
2023/06/05 09:35:45;;;;;;;5.57;2.90;;;;;;;;;;5073529;28;20235;-56
2023/06/05 09:38:25;;;;;;;4.88;2.80;;;;;;;;;;5072333;28;20396;-56
2023/06/05 09:40:51;;;;;;;2.97;2.40;;;;;;;;;;5071018;28;20488;-56
2023/06/05 09:43:24;;;;;;;4.78;2.67;;;;;;;;;;5072324;28;20943;-56
2023/06/05 09:45:50;;;;;;;3.30;2.30;;;;;;;;;;5073514;28;20281;-57
2023/06/05 09:48:16;;;;;;;3.20;2.58;;;;;;;;;;5072140;28;20782;-57
2023/06/05 09:50:42;;;;;;;4.93;2.70;;;;;;;;;;5071962;28;20901;-57
2023/06/05 09:53:09;;;;;;;4.37;2.80;;;;;;;;;;5073339;28;20195;-57
2023/06/05 09:55:37;;;;;;;3.63;2.50;;;;;;;;;;5073424;28;20256;-56
2023/06/05 09:58:13;;;;;;;5.77;2.50;;;;;;;;;;5072883;28;20205;-57
2023/06/05 10:00:41;;;;;;;3.67;2.53;;;;;;;;;;5073137;28;20576;-57
2023/06/05 10:03:10;;;;;;;2.67;2.27;;;;;;;;;;5073074;28;20278;-56
2023/06/05 10:05:38;;;;;;;3.47;2.10;;;;;;;;;;5073064;28;20218;-56
2023/06/05 10:08:04;;;;;;;5.40;1.97;;;;;;;;;;5073053;28;20203;-56
2023/06/05 10:10:30;;;;;;;2.37;2.10;;;;;;;;;;5072989;28;20208;-56
2023/06/05 10:12:58;;;;;;;4.77;2.30;;;;;;;;;;5072838;28;20202;-56
2023/06/05 10:15:24;;;;;;;3.17;2.30;;;;;;;;;;5072671;28;20702;-55
2023/06/05 10:17:51;;;;;;;2.33;1.90;;;;;;;;;;5067344;28;20249;-55
2023/06/05 10:20:17;;;;;;;3.63;2.10;;;;;;;;;;5072465;28;20199;-57
2023/06/05 10:22:44;;;;;;;4.97;2.07;;;;;;;;;;5072489;28;20632;-55
2023/06/05 10:25:12;;;;;;;3.53;2.40;;;;;;;;;;5072150;28;20235;-55
2023/06/05 10:27:44;;;;;;;3.23;1.80;;;;;;;;;;5069535;28;20310;-56
2023/06/05 10:30:28;;;;;;;3.30;1.90;;;;;;;;;;5071856;28;20647;-57
2023/06/05 10:33:12;;;;;;;4.33;1.97;;;;;;;;;;5072055;28;20220;-56
2023/06/05 10:35:46;;;;;;;3.07;2.00;;;;;;;;;;5071979;28;20356;-56
2023/06/05 10:38:17;;;;;;;4.27;2.00;;;;;;;;;;5072194;28;20208;-56
2023/06/05 10:40:43;;;;;;;3.63;2.10;;;;;;;;;;5071782;28;20196;-56
2023/06/05 10:43:28;;;;;;;2.33;2.07;;;;;;;;;;5072001;28;20192;-56
2023/06/05 10:45:54;;;;;;;3.83;2.13;;;;;;;;;;5071465;28;20193;-55
2023/06/05 10:48:22;;;;;;;3.17;2.10;;;;;;;;;;5071893;28;20549;-56
2023/06/05 10:50:48;;;;;;;2.63;2.00;;;;;;;;;;5071799;28;20200;-55
2023/06/05 10:53:32;;;;;;;2.30;1.63;;;;;;;;;;5070933;28;20588;-56
2023/06/05 10:55:58;;;;;;;1.63;1.53;;;;;;;;;;5071505;28;20225;-57
2023/06/05 10:58:24;;;;;;;3.20;1.50;;;;;;;;;;5071604;28;20214;-57
2023/06/05 11:01:09;;;;;;;3.20;1.93;;;;;;;;;;5071454;28;20202;-57
2023/06/05 11:03:56;;;;;;;2.87;1.80;;;;;;;;;;5071529;28;20201;-56
2023/06/05 11:06:22;;;;;;;4.67;1.97;;;;;;;;;;5071470;28;20252;-57
2023/06/05 11:09:03;;;;;;;4.63;2.00;;;;;;;;;;5071553;28;20426;-56
2023/06/05 11:11:29;;;;;;;3.43;1.80;;;;;;;;;;5071402;28;20644;-57
2023/06/05 11:13:56;;;;;;;2.90;1.90;;;;;;;;;;5071128;28;20282;-56
2023/06/05 11:16:26;;;;;;;3.00;1.70;;;;;;;;;;5071500;28;20194;-56
2023/06/05 11:18:54;;;;;;;2.07;1.67;;;;;;;;;;5071047;28;20201;-56
2023/06/05 11:21:21;;;;;;;2.30;1.80;;;;;;;;;;5071387;28;20200;-56
2023/06/05 11:24:02;;;;;;;4.30;1.80;;;;;;;;;;5071209;28;20748;-56
2023/06/05 11:26:42;;;;;;;1.80;1.53;;;;;;;;;;5071124;28;20247;-57
2023/06/05 11:29:13;;;;;;;2.47;1.73;;;;;;;;;;5071029;28;20570;-56
2023/06/05 11:31:39;;;;;;;2.23;1.40;;;;;;;;;;5070748;28;20303;-56
2023/06/05 11:34:11;;;;;;;2.27;1.50;;;;;;;;;;5071149;28;20242;-57
2023/06/05 11:36:38;;;;;;;3.03;1.57;;;;;;;;;;5071072;28;20355;-56
2023/06/05 11:39:04;;;;;;;3.17;1.67;;;;;;;;;;5068930;28;20204;-57
2023/06/05 11:41:30;;;;;;;1.90;1.70;;;;;;;;;;5068918;28;20721;-56
2023/06/05 11:43:56;;;;;;;1.50;1.40;;;;;;;;;;5068644;28;20226;-56
2023/06/05 11:46:36;;;;;;;2.07;1.70;;;;;;;;;;5069219;28;20200;-58
2023/06/05 11:49:02;;;;;;;2.00;1.60;;;;;;;;;;5070843;28;20204;-59
2023/06/05 11:51:32;;;;;;;1.80;1.57;;;;;;;;;;5070960;28;20265;-59
2023/06/05 11:54:01;;;;;;;2.10;1.70;;;;;;;;;;5070536;28;20200;-55
2023/06/05 11:56:27;;;;;;;1.90;1.50;;;;;;;;;;5070982;28;20208;-56
2023/06/05 11:58:54;;;;;;;2.03;1.50;;;;;;;;;;5070382;28;20603;-56
2023/06/05 12:01:25;;;;;;;2.80;1.57;;;;;;;;;;5070921;28;20217;-55
2023/06/05 12:04:02;;;;;;;2.13;1.60;;;;;;;;;;5070236;28;20206;-55
2023/06/05 12:06:29;;;;;;;1.70;1.60;;;;;;;;;;5070973;28;20201;-55
2023/06/05 12:09:07;;;;;;;1.50;1.40;;;;;;;;;;5070821;28;20294;-56
2023/06/05 12:11:34;;;;;;;1.70;1.60;;;;;;;;;;5070943;28;20191;-56
2023/06/05 12:14:00;;;;;;;1.63;1.40;;;;;;;;;;5070709;28;20202;-52
2023/06/05 12:16:33;;;;;;;1.63;1.53;;;;;;;;;;5070776;28;20295;-52
2023/06/05 12:18:59;;;;;;;1.53;1.40;;;;;;;;;;5070779;28;20195;-54
2023/06/05 12:21:25;;;;;;;1.77;1.60;;;;;;;;;;5070858;28;20197;-55
2023/06/05 12:23:52;;;;;;;2.10;1.90;;;;;;;;;;5070783;28;20239;-59
2023/06/05 12:26:18;;;;;;;1.70;1.60;;;;;;;;;;5071013;28;20252;-57
2023/06/05 12:28:46;;;;;;;2.63;1.60;;;;;;;;;;5070794;28;20195;-57
2023/06/05 12:31:27;;;;;;;2.77;1.60;;;;;;;;;;5070615;28;20226;-56
2023/06/05 12:33:53;;;;;;;2.17;1.83;;;;;;;;;;5070465;28;20209;-56
2023/06/05 12:36:20;;;;;;;1.80;1.53;;;;;;;;;;5070647;28;20230;-56
2023/06/05 12:38:46;;;;;;;1.77;1.67;;;;;;;;;;5070919;28;20738;-56
2023/06/05 12:41:12;;;;;;;2.20;1.70;;;;;;;;;;5070702;28;20246;-55
2023/06/05 12:43:38;;;;;;;2.77;1.70;;;;;;;;;;5070759;28;20210;-57
2023/06/05 12:46:09;;;;;;;2.73;1.67;;;;;;;;;;5070921;28;20779;-56
2023/06/05 12:48:38;;;;;;;4.67;1.70;;;;;;;;;;5070670;28;20195;-56
2023/06/05 12:51:04;;;;;;;2.60;1.83;;;;;;;;;;5070608;28;20200;-56
2023/06/05 12:53:30;;;;;;;2.27;1.70;;;;;;;;;;5070735;28;20195;-56
2023/06/05 12:55:56;;;;;;;2.93;1.77;;;;;;;;;;5070439;28;20229;-55
2023/06/05 12:58:22;;;;;;;1.90;1.80;;;;;;;;;;5070792;28;20219;-55
2023/06/05 13:00:48;;;;;;;7.17;1.90;;;;;;;;;;5070698;28;20225;-55
2023/06/05 13:03:16;;;;;;;1.80;1.50;;;;;;;;;;5070538;28;20208;-55
2023/06/05 13:05:42;;;;;;;2.60;1.60;;;;;;;;;;5070414;28;20249;-55
2023/06/05 13:08:08;;;;;;;3.27;1.83;;;;;;;;;;5070674;28;20217;-55
2023/06/05 13:10:34;;;;;;;5.77;1.70;;;;;;;;;;5070616;28;20209;-55
2023/06/05 13:13:00;;;;;;;2.40;1.80;;;;;;;;;;5070336;28;20246;-55
2023/06/05 13:15:26;;;;;;;2.93;1.63;;;;;;;;;;5071152;28;20639;-55
2023/06/05 13:17:52;;;;;;;1.90;1.70;;;;;;;;;;5073962;28;20204;-55
2023/06/05 13:20:21;;;;;;;3.27;1.83;;;;;;;;;;5074005;28;20213;-55
2023/06/05 13:22:47;;;;;;;2.63;1.80;;;;;;;;;;5073863;28;20224;-56
2023/06/05 13:25:13;;;;;;;2.27;1.73;;;;;;;;;;5073602;28;20706;-55
2023/06/05 13:27:39;;;;;;;2.00;1.70;;;;;;;;;;5073756;28;20231;-55
2023/06/05 13:30:06;;;;;;;3.50;2.00;;;;;;;;;;5073750;28;20566;-56
2023/06/05 13:32:33;;;;;;;2.20;1.70;;;;;;;;;;5073568;28;20627;-55
2023/06/05 13:34:59;;;;;;;3.43;1.83;;;;;;;;;;5073454;28;20307;-55
2023/06/05 13:37:27;;;;;;;2.67;1.80;;;;;;;;;;5073416;28;20296;-55
2023/06/05 13:39:53;;;;;;;2.10;1.90;;;;;;;;;;5073502;28;20208;-56
2023/06/05 13:42:19;;;;;;;2.10;1.90;;;;;;;;;;5073627;28;20563;-56
2023/06/05 13:44:45;;;;;;;2.70;1.97;;;;;;;;;;5073457;28;20242;-56
2023/06/05 13:47:11;;;;;;;2.53;1.87;;;;;;;;;;5073785;28;20192;-56
2023/06/05 13:49:37;;;;;;;1.93;1.73;;;;;;;;;;5073175;28;20209;-56
2023/06/05 13:52:03;;;;;;;1.87;1.77;;;;;;;;;;5073287;28;20192;-55
2023/06/05 13:54:30;;;;;;;3.40;1.90;;;;;;;;;;5073353;28;20218;-56
2023/06/05 13:56:58;;;;;;;1.90;1.70;;;;;;;;;;5073085;28;20206;-55
2023/06/05 13:59:24;;;;;;;2.93;1.87;;;;;;;;;;5073219;28;20206;-56
2023/06/05 14:01:50;;;;;;;2.17;1.80;;;;;;;;;;5073105;28;20205;-56
2023/06/05 14:04:17;;;;;;;3.67;1.50;;;;;;;;;;5072991;28;20307;-56
2023/06/05 14:06:43;;;;;;;2.33;1.73;;;;;;;;;;5073100;28;20208;-56
2023/06/05 14:09:09;;;;;;;3.13;1.87;;;;;;;;;;5072952;28;20194;-56
2023/06/05 14:11:37;;;;;;;3.20;1.83;;;;;;;;;;5073384;28;20686;-56
2023/06/05 14:14:04;;;;;;;2.93;1.70;;;;;;;;;;5072745;28;20205;-55
2023/06/05 14:16:30;;;;;;;1.93;1.73;;;;;;;;;;5072707;28;20678;-56
2023/06/05 14:18:56;;;;;;;2.77;1.87;;;;;;;;;;5072714;28;20288;-56
2023/06/05 14:21:22;;;;;;;2.27;1.83;;;;;;;;;;5072813;28;20244;-56
2023/06/05 14:23:48;;;;;;;2.17;1.77;;;;;;;;;;5072650;28;20253;-56
2023/06/05 14:26:14;;;;;;;2.03;1.70;;;;;;;;;;5072674;28;20181;-56
2023/06/05 14:28:42;;;;;;;2.80;1.70;;;;;;;;;;5071971;28;20624;-56
2023/06/05 14:31:08;;;;;;;2.43;1.73;;;;;;;;;;5072342;28;20557;-56
2023/06/05 14:33:34;;;;;;;2.80;1.97;;;;;;;;;;5072793;28;20211;-55
2023/06/05 14:36:00;;;;;;;2.60;1.73;;;;;;;;;;5072150;28;20303;-55
2023/06/05 14:38:26;;;;;;;2.37;1.80;;;;;;;;;;5072334;28;20200;-56
2023/06/05 14:40:52;;;;;;;1.90;1.60;;;;;;;;;;5072327;28;20382;-55
2023/06/05 14:43:19;;;;;;;2.30;1.90;;;;;;;;;;5072494;28;20196;-56
2023/06/05 14:45:46;;;;;;;2.03;1.83;;;;;;;;;;5072088;28;20211;-55